sensor_id;sensor_type;location;lat;lon;timestamp;P1;durP1;ratioP1;P2;durP2;ratioP2
63536;SDS011;49686;51.880;5.632;2023-03-03T00:00:36;26.27;;;11.75;;
63536;SDS011;49686;51.880;5.632;2023-03-03T00:03:03;25.77;;;12.23;;
63536;SDS011;49686;51.880;5.632;2023-03-03T00:05:32;24.92;;;12.35;;
63536;SDS011;49686;51.880;5.632;2023-03-03T00:08:00;30.13;;;12.57;;
63536;SDS011;49686;51.880;5.632;2023-03-03T00:10:28;24.77;;;10.88;;
63536;SDS011;49686;51.880;5.632;2023-03-03T00:12:55;23.25;;;10.18;;
63536;SDS011;49686;51.880;5.632;2023-03-03T00:15:22;23.27;;;10.32;;
63536;SDS011;49686;51.880;5.632;2023-03-03T00:17:51;25.20;;;11.88;;
63536;SDS011;49686;51.880;5.632;2023-03-03T00:20:21;19.00;;;8.75;;
63536;SDS011;49686;51.880;5.632;2023-03-03T00:22:55;25.17;;;11.30;;
63536;SDS011;49686;51.880;5.632;2023-03-03T00:25:27;24.90;;;11.57;;
63536;SDS011;49686;51.880;5.632;2023-03-03T00:27:56;23.20;;;10.50;;
63536;SDS011;49686;51.880;5.632;2023-03-03T00:30:31;26.13;;;11.38;;
63536;SDS011;49686;51.880;5.632;2023-03-03T00:32:59;24.50;;;11.38;;
63536;SDS011;49686;51.880;5.632;2023-03-03T00:35:27;24.63;;;10.53;;
63536;SDS011;49686;51.880;5.632;2023-03-03T00:37:56;26.05;;;11.68;;
63536;SDS011;49686;51.880;5.632;2023-03-03T00:40:24;25.05;;;11.32;;
63536;SDS011;49686;51.880;5.632;2023-03-03T00:42:53;26.77;;;11.50;;
63536;SDS011;49686;51.880;5.632;2023-03-03T00:45:24;13.48;;;6.35;;
63536;SDS011;49686;51.880;5.632;2023-03-03T00:47:54;23.55;;;11.02;;
63536;SDS011;49686;51.880;5.632;2023-03-03T00:50:29;24.58;;;11.38;;
63536;SDS011;49686;51.880;5.632;2023-03-03T00:53:01;29.30;;;12.55;;
63536;SDS011;49686;51.880;5.632;2023-03-03T00:55:31;22.92;;;10.30;;
63536;SDS011;49686;51.880;5.632;2023-03-03T00:57:58;21.35;;;10.27;;
63536;SDS011;49686;51.880;5.632;2023-03-03T01:00:25;22.63;;;10.35;;
63536;SDS011;49686;51.880;5.632;2023-03-03T01:02:51;21.45;;;10.25;;
63536;SDS011;49686;51.880;5.632;2023-03-03T01:05:19;22.50;;;10.23;;
63536;SDS011;49686;51.880;5.632;2023-03-03T01:07:47;20.13;;;9.50;;
63536;SDS011;49686;51.880;5.632;2023-03-03T01:10:14;25.25;;;11.90;;
63536;SDS011;49686;51.880;5.632;2023-03-03T01:12:41;24.92;;;12.15;;
63536;SDS011;49686;51.880;5.632;2023-03-03T01:15:09;28.80;;;12.13;;
63536;SDS011;49686;51.880;5.632;2023-03-03T01:17:37;20.95;;;10.02;;
63536;SDS011;49686;51.880;5.632;2023-03-03T01:20:05;29.20;;;12.95;;
63536;SDS011;49686;51.880;5.632;2023-03-03T01:22:33;23.77;;;11.70;;
63536;SDS011;49686;51.880;5.632;2023-03-03T01:25:01;26.13;;;11.77;;
63536;SDS011;49686;51.880;5.632;2023-03-03T01:27:29;25.17;;;11.60;;
63536;SDS011;49686;51.880;5.632;2023-03-03T01:29:56;25.77;;;11.93;;
63536;SDS011;49686;51.880;5.632;2023-03-03T01:32:24;31.50;;;13.50;;
63536;SDS011;49686;51.880;5.632;2023-03-03T01:34:52;25.70;;;12.82;;
63536;SDS011;49686;51.880;5.632;2023-03-03T01:37:19;30.35;;;13.45;;
63536;SDS011;49686;51.880;5.632;2023-03-03T01:39:49;24.85;;;11.23;;
63536;SDS011;49686;51.880;5.632;2023-03-03T01:42:18;28.98;;;13.00;;
63536;SDS011;49686;51.880;5.632;2023-03-03T01:44:46;31.85;;;14.45;;
63536;SDS011;49686;51.880;5.632;2023-03-03T01:47:13;30.88;;;12.13;;
63536;SDS011;49686;51.880;5.632;2023-03-03T01:49:43;29.05;;;13.15;;
63536;SDS011;49686;51.880;5.632;2023-03-03T01:52:15;24.08;;;10.77;;
63536;SDS011;49686;51.880;5.632;2023-03-03T01:54:48;26.55;;;11.30;;
63536;SDS011;49686;51.880;5.632;2023-03-03T01:57:22;27.42;;;11.38;;
63536;SDS011;49686;51.880;5.632;2023-03-03T01:59:52;18.02;;;8.32;;
63536;SDS011;49686;51.880;5.632;2023-03-03T02:02:22;27.90;;;12.68;;
63536;SDS011;49686;51.880;5.632;2023-03-03T02:04:50;24.73;;;11.35;;
63536;SDS011;49686;51.880;5.632;2023-03-03T02:07:17;29.58;;;12.88;;
63536;SDS011;49686;51.880;5.632;2023-03-03T02:12:17;26.40;;;11.15;;
63536;SDS011;49686;51.880;5.632;2023-03-03T02:14:46;20.60;;;8.55;;
63536;SDS011;49686;51.880;5.632;2023-03-03T02:17:13;25.63;;;11.68;;
63536;SDS011;49686;51.880;5.632;2023-03-03T02:19:42;24.70;;;10.75;;
63536;SDS011;49686;51.880;5.632;2023-03-03T02:22:19;23.95;;;8.38;;
63536;SDS011;49686;51.880;5.632;2023-03-03T02:24:53;22.42;;;9.48;;
63536;SDS011;49686;51.880;5.632;2023-03-03T02:27:26;30.85;;;13.00;;
63536;SDS011;49686;51.880;5.632;2023-03-03T02:29:56;23.75;;;10.57;;
63536;SDS011;49686;51.880;5.632;2023-03-03T02:32:23;26.15;;;11.38;;
63536;SDS011;49686;51.880;5.632;2023-03-03T02:34:50;26.38;;;10.93;;
63536;SDS011;49686;51.880;5.632;2023-03-03T02:37:18;25.65;;;10.95;;
63536;SDS011;49686;51.880;5.632;2023-03-03T02:39:45;25.17;;;11.80;;
63536;SDS011;49686;51.880;5.632;2023-03-03T02:42:13;27.98;;;11.07;;
63536;SDS011;49686;51.880;5.632;2023-03-03T02:44:46;25.90;;;10.48;;
63536;SDS011;49686;51.880;5.632;2023-03-03T02:47:13;27.10;;;11.40;;
63536;SDS011;49686;51.880;5.632;2023-03-03T02:49:40;21.70;;;9.70;;
63536;SDS011;49686;51.880;5.632;2023-03-03T02:52:07;23.85;;;9.25;;
63536;SDS011;49686;51.880;5.632;2023-03-03T02:54:35;26.70;;;10.60;;
63536;SDS011;49686;51.880;5.632;2023-03-03T02:57:03;29.33;;;12.57;;
63536;SDS011;49686;51.880;5.632;2023-03-03T02:59:31;26.38;;;11.15;;
63536;SDS011;49686;51.880;5.632;2023-03-03T03:01:59;31.52;;;11.88;;
63536;SDS011;49686;51.880;5.632;2023-03-03T03:04:26;27.15;;;11.85;;
63536;SDS011;49686;51.880;5.632;2023-03-03T03:06:54;27.00;;;10.95;;
63536;SDS011;49686;51.880;5.632;2023-03-03T03:09:21;25.27;;;10.18;;
63536;SDS011;49686;51.880;5.632;2023-03-03T03:11:49;24.13;;;10.20;;
63536;SDS011;49686;51.880;5.632;2023-03-03T03:14:16;25.58;;;11.15;;
63536;SDS011;49686;51.880;5.632;2023-03-03T03:16:43;28.05;;;11.15;;
63536;SDS011;49686;51.880;5.632;2023-03-03T03:19:12;25.00;;;10.38;;
63536;SDS011;49686;51.880;5.632;2023-03-03T03:21:38;25.15;;;10.63;;
63536;SDS011;49686;51.880;5.632;2023-03-03T03:24:05;19.08;;;8.00;;
63536;SDS011;49686;51.880;5.632;2023-03-03T03:26:32;18.60;;;8.20;;
63536;SDS011;49686;51.880;5.632;2023-03-03T03:28:59;24.90;;;9.80;;
63536;SDS011;49686;51.880;5.632;2023-03-03T03:31:26;22.38;;;9.80;;
63536;SDS011;49686;51.880;5.632;2023-03-03T03:33:53;22.23;;;10.00;;
63536;SDS011;49686;51.880;5.632;2023-03-03T03:36:21;18.70;;;7.88;;
63536;SDS011;49686;51.880;5.632;2023-03-03T03:38:48;20.60;;;9.03;;
63536;SDS011;49686;51.880;5.632;2023-03-03T03:41:15;22.40;;;8.80;;
63536;SDS011;49686;51.880;5.632;2023-03-03T03:43:42;17.60;;;7.88;;
63536;SDS011;49686;51.880;5.632;2023-03-03T03:46:08;21.05;;;9.50;;
63536;SDS011;49686;51.880;5.632;2023-03-03T03:48:35;25.73;;;11.05;;
63536;SDS011;49686;51.880;5.632;2023-03-03T03:51:02;21.50;;;9.40;;
63536;SDS011;49686;51.880;5.632;2023-03-03T03:53:31;20.42;;;10.27;;
63536;SDS011;49686;51.880;5.632;2023-03-03T03:55:58;25.97;;;10.37;;
63536;SDS011;49686;51.880;5.632;2023-03-03T03:58:24;19.80;;;9.27;;
63536;SDS011;49686;51.880;5.632;2023-03-03T04:00:51;22.52;;;10.25;;
63536;SDS011;49686;51.880;5.632;2023-03-03T04:03:18;24.10;;;10.27;;
63536;SDS011;49686;51.880;5.632;2023-03-03T04:05:45;25.88;;;10.65;;
63536;SDS011;49686;51.880;5.632;2023-03-03T04:08:12;24.83;;;10.52;;
63536;SDS011;49686;51.880;5.632;2023-03-03T04:10:40;26.15;;;10.10;;
63536;SDS011;49686;51.880;5.632;2023-03-03T04:13:07;25.93;;;9.83;;
63536;SDS011;49686;51.880;5.632;2023-03-03T04:15:34;23.75;;;9.73;;
63536;SDS011;49686;51.880;5.632;2023-03-03T04:18:00;27.23;;;10.63;;
63536;SDS011;49686;51.880;5.632;2023-03-03T04:20:28;28.98;;;11.65;;
63536;SDS011;49686;51.880;5.632;2023-03-03T04:22:55;24.35;;;11.77;;
63536;SDS011;49686;51.880;5.632;2023-03-03T04:25:21;21.23;;;8.73;;
63536;SDS011;49686;51.880;5.632;2023-03-03T04:27:50;27.58;;;10.93;;
63536;SDS011;49686;51.880;5.632;2023-03-03T04:30:17;29.07;;;11.43;;
63536;SDS011;49686;51.880;5.632;2023-03-03T04:32:44;23.42;;;9.52;;
63536;SDS011;49686;51.880;5.632;2023-03-03T04:35:11;22.90;;;9.23;;
63536;SDS011;49686;51.880;5.632;2023-03-03T04:37:38;26.80;;;11.52;;
63536;SDS011;49686;51.880;5.632;2023-03-03T04:40:05;23.50;;;9.45;;
63536;SDS011;49686;51.880;5.632;2023-03-03T04:45:02;21.50;;;8.60;;
63536;SDS011;49686;51.880;5.632;2023-03-03T04:47:29;18.40;;;7.35;;
63536;SDS011;49686;51.880;5.632;2023-03-03T04:49:57;29.40;;;11.70;;
63536;SDS011;49686;51.880;5.632;2023-03-03T04:52:24;29.88;;;11.88;;
63536;SDS011;49686;51.880;5.632;2023-03-03T04:54:50;27.17;;;10.43;;
63536;SDS011;49686;51.880;5.632;2023-03-03T04:57:17;27.10;;;10.57;;
63536;SDS011;49686;51.880;5.632;2023-03-03T04:59:44;27.90;;;9.77;;
63536;SDS011;49686;51.880;5.632;2023-03-03T05:02:12;28.17;;;11.07;;
63536;SDS011;49686;51.880;5.632;2023-03-03T05:04:39;22.17;;;8.67;;
63536;SDS011;49686;51.880;5.632;2023-03-03T05:07:06;30.73;;;10.70;;
63536;SDS011;49686;51.880;5.632;2023-03-03T05:09:33;29.80;;;11.35;;
63536;SDS011;49686;51.880;5.632;2023-03-03T05:12:00;27.95;;;10.90;;
63536;SDS011;49686;51.880;5.632;2023-03-03T05:14:26;26.30;;;10.15;;
63536;SDS011;49686;51.880;5.632;2023-03-03T05:16:53;24.13;;;9.52;;
63536;SDS011;49686;51.880;5.632;2023-03-03T05:19:21;25.92;;;9.65;;
63536;SDS011;49686;51.880;5.632;2023-03-03T05:21:48;30.52;;;11.35;;
63536;SDS011;49686;51.880;5.632;2023-03-03T05:24:15;28.08;;;11.23;;
63536;SDS011;49686;51.880;5.632;2023-03-03T05:26:42;31.35;;;11.82;;
63536;SDS011;49686;51.880;5.632;2023-03-03T05:29:09;32.33;;;12.98;;
63536;SDS011;49686;51.880;5.632;2023-03-03T05:31:36;15.95;;;6.63;;
63536;SDS011;49686;51.880;5.632;2023-03-03T05:34:02;33.05;;;12.10;;
63536;SDS011;49686;51.880;5.632;2023-03-03T05:36:30;25.17;;;10.75;;
63536;SDS011;49686;51.880;5.632;2023-03-03T05:38:57;28.55;;;12.38;;
63536;SDS011;49686;51.880;5.632;2023-03-03T05:41:24;29.73;;;12.23;;
63536;SDS011;49686;51.880;5.632;2023-03-03T05:43:52;32.38;;;11.55;;
63536;SDS011;49686;51.880;5.632;2023-03-03T05:46:19;27.80;;;10.95;;
63536;SDS011;49686;51.880;5.632;2023-03-03T05:48:46;24.60;;;9.73;;
63536;SDS011;49686;51.880;5.632;2023-03-03T05:51:13;24.13;;;9.88;;
63536;SDS011;49686;51.880;5.632;2023-03-03T05:53:41;25.08;;;9.38;;
63536;SDS011;49686;51.880;5.632;2023-03-03T05:56:08;28.20;;;11.37;;
63536;SDS011;49686;51.880;5.632;2023-03-03T05:58:38;33.10;;;11.93;;
63536;SDS011;49686;51.880;5.632;2023-03-03T06:01:05;25.63;;;10.23;;
63536;SDS011;49686;51.880;5.632;2023-03-03T06:03:31;24.17;;;9.43;;
63536;SDS011;49686;51.880;5.632;2023-03-03T06:05:58;23.83;;;9.55;;
63536;SDS011;49686;51.880;5.632;2023-03-03T06:08:26;27.77;;;9.80;;
63536;SDS011;49686;51.880;5.632;2023-03-03T06:10:55;20.85;;;8.48;;
63536;SDS011;49686;51.880;5.632;2023-03-03T06:13:21;23.83;;;9.80;;
63536;SDS011;49686;51.880;5.632;2023-03-03T06:15:48;28.17;;;10.70;;
63536;SDS011;49686;51.880;5.632;2023-03-03T06:18:15;25.67;;;9.98;;
63536;SDS011;49686;51.880;5.632;2023-03-03T06:20:42;28.60;;;10.63;;
63536;SDS011;49686;51.880;5.632;2023-03-03T06:23:09;25.58;;;9.77;;
63536;SDS011;49686;51.880;5.632;2023-03-03T06:25:37;23.25;;;9.75;;
63536;SDS011;49686;51.880;5.632;2023-03-03T06:28:06;20.70;;;8.10;;
63536;SDS011;49686;51.880;5.632;2023-03-03T06:30:33;24.50;;;10.23;;
63536;SDS011;49686;51.880;5.632;2023-03-03T06:33:00;23.20;;;9.27;;
63536;SDS011;49686;51.880;5.632;2023-03-03T06:35:26;25.23;;;9.95;;
63536;SDS011;49686;51.880;5.632;2023-03-03T06:37:53;23.90;;;9.07;;
63536;SDS011;49686;51.880;5.632;2023-03-03T06:40:21;24.92;;;9.70;;
63536;SDS011;49686;51.880;5.632;2023-03-03T06:42:48;23.42;;;8.65;;
63536;SDS011;49686;51.880;5.632;2023-03-03T06:45:17;25.25;;;9.65;;
63536;SDS011;49686;51.880;5.632;2023-03-03T06:47:44;26.02;;;10.32;;
63536;SDS011;49686;51.880;5.632;2023-03-03T06:50:11;25.80;;;9.23;;
63536;SDS011;49686;51.880;5.632;2023-03-03T06:52:38;21.75;;;9.07;;
63536;SDS011;49686;51.880;5.632;2023-03-03T06:55:09;21.70;;;8.07;;
63536;SDS011;49686;51.880;5.632;2023-03-03T06:57:38;20.08;;;8.23;;
63536;SDS011;49686;51.880;5.632;2023-03-03T07:00:11;18.92;;;8.45;;
63536;SDS011;49686;51.880;5.632;2023-03-03T07:02:42;22.33;;;8.88;;
63536;SDS011;49686;51.880;5.632;2023-03-03T07:05:10;22.33;;;8.95;;
63536;SDS011;49686;51.880;5.632;2023-03-03T07:07:39;21.38;;;8.27;;
63536;SDS011;49686;51.880;5.632;2023-03-03T07:10:12;21.15;;;8.57;;
63536;SDS011;49686;51.880;5.632;2023-03-03T07:12:45;20.38;;;7.93;;
63536;SDS011;49686;51.880;5.632;2023-03-03T07:15:14;21.75;;;8.88;;
63536;SDS011;49686;51.880;5.632;2023-03-03T07:17:44;16.67;;;6.45;;
63536;SDS011;49686;51.880;5.632;2023-03-03T07:20:17;16.20;;;7.03;;
63536;SDS011;49686;51.880;5.632;2023-03-03T07:22:45;18.48;;;7.00;;
63536;SDS011;49686;51.880;5.632;2023-03-03T07:25:17;18.15;;;7.65;;
63536;SDS011;49686;51.880;5.632;2023-03-03T07:27:46;18.30;;;7.30;;
63536;SDS011;49686;51.880;5.632;2023-03-03T07:30:18;16.52;;;6.97;;
63536;SDS011;49686;51.880;5.632;2023-03-03T07:32:52;13.93;;;5.95;;
63536;SDS011;49686;51.880;5.632;2023-03-03T07:35:24;16.95;;;6.97;;
63536;SDS011;49686;51.880;5.632;2023-03-03T07:38:00;17.20;;;7.05;;
63536;SDS011;49686;51.880;5.632;2023-03-03T07:40:33;19.83;;;7.13;;
63536;SDS011;49686;51.880;5.632;2023-03-03T07:43:13;11.73;;;5.70;;
63536;SDS011;49686;51.880;5.632;2023-03-03T07:45:53;14.25;;;6.07;;
63536;SDS011;49686;51.880;5.632;2023-03-03T07:48:25;14.13;;;6.22;;
63536;SDS011;49686;51.880;5.632;2023-03-03T07:51:04;13.45;;;5.65;;
63536;SDS011;49686;51.880;5.632;2023-03-03T07:53:37;13.55;;;5.25;;
63536;SDS011;49686;51.880;5.632;2023-03-03T07:56:16;13.00;;;5.80;;
63536;SDS011;49686;51.880;5.632;2023-03-03T07:59:00;11.05;;;4.60;;
63536;SDS011;49686;51.880;5.632;2023-03-03T08:01:35;14.73;;;6.63;;
63536;SDS011;49686;51.880;5.632;2023-03-03T08:04:16;17.55;;;6.78;;
63536;SDS011;49686;51.880;5.632;2023-03-03T08:06:46;12.75;;;5.80;;
63536;SDS011;49686;51.880;5.632;2023-03-03T08:11:52;14.35;;;6.00;;
63536;SDS011;49686;51.880;5.632;2023-03-03T08:14:22;12.05;;;5.72;;
63536;SDS011;49686;51.880;5.632;2023-03-03T08:16:52;10.48;;;4.10;;
63536;SDS011;49686;51.880;5.632;2023-03-03T08:19:21;7.28;;;3.85;;
63536;SDS011;49686;51.880;5.632;2023-03-03T08:21:48;11.70;;;5.47;;
63536;SDS011;49686;51.880;5.632;2023-03-03T08:24:16;15.57;;;6.20;;
63536;SDS011;49686;51.880;5.632;2023-03-03T08:26:42;16.05;;;5.68;;
63536;SDS011;49686;51.880;5.632;2023-03-03T08:29:09;13.90;;;4.85;;
63536;SDS011;49686;51.880;5.632;2023-03-03T08:31:36;15.32;;;6.40;;
63536;SDS011;49686;51.880;5.632;2023-03-03T08:34:07;11.43;;;5.75;;
63536;SDS011;49686;51.880;5.632;2023-03-03T08:36:35;17.23;;;6.75;;
63536;SDS011;49686;51.880;5.632;2023-03-03T08:39:02;16.07;;;6.30;;
63536;SDS011;49686;51.880;5.632;2023-03-03T08:41:30;17.50;;;6.85;;
63536;SDS011;49686;51.880;5.632;2023-03-03T08:43:59;17.33;;;6.72;;
63536;SDS011;49686;51.880;5.632;2023-03-03T08:46:25;13.52;;;5.45;;
63536;SDS011;49686;51.880;5.632;2023-03-03T08:48:52;12.10;;;5.38;;
63536;SDS011;49686;51.880;5.632;2023-03-03T08:51:19;10.98;;;5.00;;
63536;SDS011;49686;51.880;5.632;2023-03-03T08:53:47;14.23;;;5.45;;
63536;SDS011;49686;51.880;5.632;2023-03-03T08:56:14;15.07;;;5.80;;
63536;SDS011;49686;51.880;5.632;2023-03-03T08:58:41;15.88;;;6.07;;
63536;SDS011;49686;51.880;5.632;2023-03-03T09:01:24;13.60;;;5.40;;
63536;SDS011;49686;51.880;5.632;2023-03-03T09:03:51;17.27;;;6.07;;
63536;SDS011;49686;51.880;5.632;2023-03-03T09:06:18;11.50;;;5.40;;
63536;SDS011;49686;51.880;5.632;2023-03-03T09:08:45;12.55;;;5.47;;
63536;SDS011;49686;51.880;5.632;2023-03-03T09:11:23;12.05;;;5.57;;
63536;SDS011;49686;51.880;5.632;2023-03-03T09:13:52;11.55;;;5.30;;
63536;SDS011;49686;51.880;5.632;2023-03-03T09:16:25;9.45;;;4.70;;
63536;SDS011;49686;51.880;5.632;2023-03-03T09:18:55;12.13;;;5.60;;
63536;SDS011;49686;51.880;5.632;2023-03-03T09:21:22;14.85;;;6.75;;
63536;SDS011;49686;51.880;5.632;2023-03-03T09:28:51;12.63;;;5.45;;
63536;SDS011;49686;51.880;5.632;2023-03-03T09:31:21;15.35;;;5.18;;
63536;SDS011;49686;51.880;5.632;2023-03-03T09:33:51;12.75;;;5.40;;
63536;SDS011;49686;51.880;5.632;2023-03-03T09:36:20;11.93;;;5.40;;
63536;SDS011;49686;51.880;5.632;2023-03-03T09:38:50;11.00;;;4.82;;
63536;SDS011;49686;51.880;5.632;2023-03-03T09:41:26;9.03;;;4.90;;
63536;SDS011;49686;51.880;5.632;2023-03-03T09:44:12;12.68;;;5.18;;
63536;SDS011;49686;51.880;5.632;2023-03-03T09:47:00;12.70;;;5.40;;
63536;SDS011;49686;51.880;5.632;2023-03-03T09:49:39;17.67;;;6.00;;
63536;SDS011;49686;51.880;5.632;2023-03-03T09:52:19;9.60;;;4.82;;
63536;SDS011;49686;51.880;5.632;2023-03-03T09:54:52;11.25;;;4.45;;
63536;SDS011;49686;51.880;5.632;2023-03-03T09:57:30;12.68;;;5.57;;
63536;SDS011;49686;51.880;5.632;2023-03-03T10:00:11;11.90;;;4.78;;
63536;SDS011;49686;51.880;5.632;2023-03-03T10:02:52;10.75;;;5.22;;
63536;SDS011;49686;51.880;5.632;2023-03-03T10:05:38;11.57;;;4.65;;
63536;SDS011;49686;51.880;5.632;2023-03-03T10:08:17;10.73;;;4.80;;
63536;SDS011;49686;51.880;5.632;2023-03-03T10:10:59;12.25;;;5.50;;
63536;SDS011;49686;51.880;5.632;2023-03-03T10:13:41;9.10;;;4.55;;
63536;SDS011;49686;51.880;5.632;2023-03-03T10:16:30;10.90;;;4.47;;
63536;SDS011;49686;51.880;5.632;2023-03-03T10:19:24;9.05;;;4.78;;
63536;SDS011;49686;51.880;5.632;2023-03-03T10:22:02;10.27;;;5.13;;
63536;SDS011;49686;51.880;5.632;2023-03-03T10:24:43;8.82;;;4.75;;
63536;SDS011;49686;51.880;5.632;2023-03-03T10:27:24;11.48;;;4.97;;
63536;SDS011;49686;51.880;5.632;2023-03-03T10:30:02;13.05;;;6.85;;
63536;SDS011;49686;51.880;5.632;2023-03-03T10:32:39;8.98;;;5.13;;
63536;SDS011;49686;51.880;5.632;2023-03-03T10:35:30;11.38;;;4.63;;
63536;SDS011;49686;51.880;5.632;2023-03-03T10:38:18;9.77;;;5.10;;
63536;SDS011;49686;51.880;5.632;2023-03-03T10:40:52;9.02;;;4.80;;
63536;SDS011;49686;51.880;5.632;2023-03-03T10:43:36;7.35;;;4.03;;
63536;SDS011;49686;51.880;5.632;2023-03-03T10:46:19;9.63;;;4.47;;
63536;SDS011;49686;51.880;5.632;2023-03-03T10:49:11;8.48;;;4.03;;
63536;SDS011;49686;51.880;5.632;2023-03-03T10:51:50;7.45;;;4.25;;
63536;SDS011;49686;51.880;5.632;2023-03-03T10:54:29;7.80;;;4.30;;
63536;SDS011;49686;51.880;5.632;2023-03-03T10:57:13;6.88;;;3.75;;
63536;SDS011;49686;51.880;5.632;2023-03-03T10:59:52;7.47;;;3.90;;
63536;SDS011;49686;51.880;5.632;2023-03-03T11:02:31;7.20;;;3.80;;
63536;SDS011;49686;51.880;5.632;2023-03-03T11:05:09;6.60;;;3.50;;
63536;SDS011;49686;51.880;5.632;2023-03-03T11:07:49;7.70;;;3.40;;
63536;SDS011;49686;51.880;5.632;2023-03-03T11:10:26;10.07;;;4.07;;
63536;SDS011;49686;51.880;5.632;2023-03-03T11:13:05;7.80;;;3.45;;
63536;SDS011;49686;51.880;5.632;2023-03-03T11:15:50;6.70;;;3.33;;
63536;SDS011;49686;51.880;5.632;2023-03-03T11:18:31;5.63;;;3.75;;
63536;SDS011;49686;51.880;5.632;2023-03-03T11:21:05;7.55;;;3.70;;
63536;SDS011;49686;51.880;5.632;2023-03-03T11:23:48;6.75;;;3.65;;
63536;SDS011;49686;51.880;5.632;2023-03-03T11:26:30;5.40;;;2.97;;
63536;SDS011;49686;51.880;5.632;2023-03-03T11:29:18;8.55;;;3.50;;
63536;SDS011;49686;51.880;5.632;2023-03-03T11:31:55;7.35;;;3.65;;
63536;SDS011;49686;51.880;5.632;2023-03-03T11:34:31;6.47;;;3.45;;
63536;SDS011;49686;51.880;5.632;2023-03-03T11:37:20;6.43;;;3.47;;
63536;SDS011;49686;51.880;5.632;2023-03-03T11:39:50;6.75;;;3.60;;
63536;SDS011;49686;51.880;5.632;2023-03-03T11:42:21;5.90;;;3.55;;
63536;SDS011;49686;51.880;5.632;2023-03-03T11:44:54;6.35;;;3.13;;
63536;SDS011;49686;51.880;5.632;2023-03-03T11:47:23;5.32;;;3.30;;
63536;SDS011;49686;51.880;5.632;2023-03-03T11:49:58;6.43;;;3.47;;
63536;SDS011;49686;51.880;5.632;2023-03-03T11:52:28;6.38;;;3.60;;
63536;SDS011;49686;51.880;5.632;2023-03-03T11:55:03;6.07;;;3.50;;
63536;SDS011;49686;51.880;5.632;2023-03-03T11:57:34;6.20;;;3.58;;
63536;SDS011;49686;51.880;5.632;2023-03-03T12:00:15;5.93;;;3.40;;
63536;SDS011;49686;51.880;5.632;2023-03-03T12:02:53;7.10;;;3.75;;
63536;SDS011;49686;51.880;5.632;2023-03-03T12:05:40;5.60;;;2.90;;
63536;SDS011;49686;51.880;5.632;2023-03-03T12:08:18;7.40;;;3.65;;
63536;SDS011;49686;51.880;5.632;2023-03-03T12:10:54;7.18;;;3.50;;
63536;SDS011;49686;51.880;5.632;2023-03-03T12:13:33;5.18;;;3.63;;
63536;SDS011;49686;51.880;5.632;2023-03-03T12:16:16;6.50;;;4.10;;
63536;SDS011;49686;51.880;5.632;2023-03-03T12:18:52;5.25;;;3.17;;
63536;SDS011;49686;51.880;5.632;2023-03-03T12:21:36;6.95;;;3.00;;
63536;SDS011;49686;51.880;5.632;2023-03-03T12:24:18;5.85;;;3.25;;
63536;SDS011;49686;51.880;5.632;2023-03-03T12:26:52;4.68;;;3.22;;
63536;SDS011;49686;51.880;5.632;2023-03-03T12:29:31;4.97;;;2.75;;
63536;SDS011;49686;51.880;5.632;2023-03-03T12:32:09;6.63;;;3.95;;
63536;SDS011;49686;51.880;5.632;2023-03-03T12:34:46;7.25;;;4.47;;
63536;SDS011;49686;51.880;5.632;2023-03-03T12:37:24;9.52;;;4.50;;
63536;SDS011;49686;51.880;5.632;2023-03-03T12:40:12;7.72;;;4.88;;
63536;SDS011;49686;51.880;5.632;2023-03-03T12:42:46;10.18;;;5.97;;
63536;SDS011;49686;51.880;5.632;2023-03-03T12:45:24;9.82;;;6.57;;
63536;SDS011;49686;51.880;5.632;2023-03-03T12:48:00;8.10;;;5.40;;
63536;SDS011;49686;51.880;5.632;2023-03-03T12:50:35;8.70;;;5.00;;
63536;SDS011;49686;51.880;5.632;2023-03-03T12:53:18;6.80;;;4.18;;
63536;SDS011;49686;51.880;5.632;2023-03-03T12:55:52;8.00;;;5.40;;
63536;SDS011;49686;51.880;5.632;2023-03-03T12:58:30;10.02;;;6.03;;
63536;SDS011;49686;51.880;5.632;2023-03-03T13:01:07;11.80;;;6.60;;
63536;SDS011;49686;51.880;5.632;2023-03-03T13:03:44;10.88;;;6.38;;
63536;SDS011;49686;51.880;5.632;2023-03-03T13:06:22;9.68;;;6.47;;
63536;SDS011;49686;51.880;5.632;2023-03-03T13:09:04;8.10;;;5.60;;
63536;SDS011;49686;51.880;5.632;2023-03-03T13:11:45;9.95;;;6.57;;
63536;SDS011;49686;51.880;5.632;2023-03-03T13:14:26;11.88;;;6.30;;
63536;SDS011;49686;51.880;5.632;2023-03-03T13:17:02;6.72;;;4.40;;
63536;SDS011;49686;51.880;5.632;2023-03-03T13:19:37;4.88;;;3.60;;
63536;SDS011;49686;51.880;5.632;2023-03-03T13:22:08;6.07;;;3.38;;
63536;SDS011;49686;51.880;5.632;2023-03-03T13:24:42;6.28;;;3.05;;
63536;SDS011;49686;51.880;5.632;2023-03-03T13:27:19;6.07;;;2.80;;
63536;SDS011;49686;51.880;5.632;2023-03-03T13:29:51;3.72;;;2.42;;
63536;SDS011;49686;51.880;5.632;2023-03-03T13:32:26;5.35;;;3.38;;
63536;SDS011;49686;51.880;5.632;2023-03-03T13:35:00;4.88;;;2.90;;
63536;SDS011;49686;51.880;5.632;2023-03-03T13:37:32;4.05;;;3.45;;
63536;SDS011;49686;51.880;5.632;2023-03-03T13:40:05;4.53;;;2.55;;
63536;SDS011;49686;51.880;5.632;2023-03-03T13:42:41;5.68;;;3.53;;
63536;SDS011;49686;51.880;5.632;2023-03-03T13:45:15;4.35;;;2.30;;
63536;SDS011;49686;51.880;5.632;2023-03-03T13:47:47;5.68;;;2.55;;
63536;SDS011;49686;51.880;5.632;2023-03-03T13:50:21;3.72;;;2.80;;
63536;SDS011;49686;51.880;5.632;2023-03-03T13:52:57;5.00;;;3.17;;
63536;SDS011;49686;51.880;5.632;2023-03-03T13:55:39;3.75;;;2.70;;
63536;SDS011;49686;51.880;5.632;2023-03-03T13:58:11;4.05;;;2.13;;
63536;SDS011;49686;51.880;5.632;2023-03-03T14:00:51;4.78;;;2.20;;
63536;SDS011;49686;51.880;5.632;2023-03-03T14:06:25;4.87;;;2.27;;
63536;SDS011;49686;51.880;5.632;2023-03-03T14:09:02;3.42;;;1.73;;
63536;SDS011;49686;51.880;5.632;2023-03-03T14:11:41;3.20;;;1.90;;
63536;SDS011;49686;51.880;5.632;2023-03-03T14:14:18;3.90;;;1.80;;
63536;SDS011;49686;51.880;5.632;2023-03-03T14:16:54;6.13;;;2.40;;
63536;SDS011;49686;51.880;5.632;2023-03-03T14:19:27;4.50;;;1.90;;
63536;SDS011;49686;51.880;5.632;2023-03-03T14:22:03;3.08;;;2.13;;
63536;SDS011;49686;51.880;5.632;2023-03-03T14:24:32;5.68;;;2.22;;
63536;SDS011;49686;51.880;5.632;2023-03-03T14:27:22;3.80;;;2.17;;
63536;SDS011;49686;51.880;5.632;2023-03-03T14:29:50;5.07;;;2.50;;
63536;SDS011;49686;51.880;5.632;2023-03-03T14:32:19;4.90;;;2.15;;
63536;SDS011;49686;51.880;5.632;2023-03-03T14:34:57;3.72;;;2.22;;
63536;SDS011;49686;51.880;5.632;2023-03-03T14:37:28;2.78;;;2.10;;
63536;SDS011;49686;51.880;5.632;2023-03-03T14:40:13;5.38;;;2.22;;
63536;SDS011;49686;51.880;5.632;2023-03-03T14:42:45;3.47;;;1.98;;
63536;SDS011;49686;51.880;5.632;2023-03-03T14:45:19;7.50;;;2.35;;
63536;SDS011;49686;51.880;5.632;2023-03-03T14:47:56;5.80;;;2.83;;
63536;SDS011;49686;51.880;5.632;2023-03-03T14:50:29;3.10;;;2.80;;
63536;SDS011;49686;51.880;5.632;2023-03-03T14:53:07;3.83;;;1.75;;
63536;SDS011;49686;51.880;5.632;2023-03-03T14:55:40;5.10;;;2.10;;
63536;SDS011;49686;51.880;5.632;2023-03-03T14:58:23;3.00;;;1.92;;
63536;SDS011;49686;51.880;5.632;2023-03-03T15:01:11;4.60;;;2.05;;
63536;SDS011;49686;51.880;5.632;2023-03-03T15:03:48;6.55;;;4.13;;
63536;SDS011;49686;51.880;5.632;2023-03-03T15:09:18;12.38;;;11.15;;
63536;SDS011;49686;51.880;5.632;2023-03-03T15:11:55;8.40;;;5.18;;
63536;SDS011;49686;51.880;5.632;2023-03-03T15:14:26;7.55;;;6.00;;
63536;SDS011;49686;51.880;5.632;2023-03-03T15:16:56;8.20;;;5.43;;
63536;SDS011;49686;51.880;5.632;2023-03-03T15:19:39;7.75;;;5.13;;